Terminal Aerodrome Forecast
Issued by NWS

Home | Current Version | Previous Version | Text Only | Print | Product List | Glossary Off
Versions: 1 2 3 4 5 6 7 8 9 10 11 12 13 14

000
FTUS42 KMHX 250527
TAFPGV
TAF
KPGV 250527Z 2506/2606 VRB03KT P6SM SKC
      TEMPO 2508/2511 5SM BR
     FM251400 06007KT P6SM FEW040
     FM252300 VRB03KT P6SM SKC
      AMD LTD TO CLD VIS AND WIND=

USA.gov is the U.S. government's official web portal to all federal, state and local government web resources and services.